Wokal Field Glasgow International Airport Glasgow US
ICAO: KGGW
IATA: GGW
Category: Medium
Scheduled Services: Yes

Elevation: 2296 ft
TransAlt. 18000 ft.

Airport Communications:
ASOS:135.175
SALT LAKE CITY CNTR:126.85
GREAT FALLS RDO:122.25
CTAF/UNICOM:122.8

KGGW Zoom In..

If you have problems with the map follow the link
https://www.worldairports.se/pages/airport.php?
ICAO=KGGW

Runways:

(A) RW 08 length 5000 ft width 75 ft
---- / hdg 79

(B) RW 12 length 5002 ft width 100 ft
---- / hdg 123

(C) RW 26 length 5000 ft width 75 ft
---- / hdg 259

(D) RW 30 length 5002 ft width 100 ft
---- / hdg 303

Location; KGGW
Day. 08 / Time. 13.00 Zulu
* Altimeter: 29.75
* Temperature: -07° c. -19.4°f.
* Wind from: 060° Speed 17 kn.
Dewpoint: -10° c.
Visibility: 2 m.
Clouds: Broken 2900 ft.
Clouds: Overcast 3500 ft.
Conditions: Light Snow.

KGGW 081300Z AUTO 06017KT 2 1/2SM -SN BKN029 OVC035 M07/M10 A2975 RMK AO2 P0000 T10671100


Wind From 060°
Speed 17 kn.

 
 
jpsmedia worldairports.se 2019   terms of use